Algoma, Mississippi
Current Conditions -  °F | °C
As of 1:53 PM on Monday 24 Nov 2014 (Local Time) from KTUP Reporting Station
Clear Clear  
Wind Chill: 59°   Ceiling: Unl
Heat Index: 59°   Visibility: 10mi
Dew Point: 33°   Wind: 6mph
Humidity: 38%   Direction: NA
Pressure: 29.89"   Gusts: NA
Location:  34.18°N, 89.03°W
Report Text: KTUP 241953Z VRB05KT 10SM CLR 15/01 A2989 RMK AO2 SLP119 T01500006 $
Loading
Personal Weather Stations






























Interactive Weather Map New forecast layout! Learn more

10-Day Weather Forecast

Advertisements
Track Severe Weather on mobile